Time;durP1;ratioP1;P1;durP2;ratioP2;P2;SDS_P1;SDS_P2;PMS_P1;PMS_P2;Temp;Humidity;BMP_temperature;BMP_pressure;BME280_temperature;BME280_humidity;BME280_pressure;Samples;Min_cycle;Max_cycle;Signal;HPM_P1;HPM_P2
2023/10/24 11:30:03;;;;;;;8.93;7.15;;;;;;;;;;6198783;22;20022;-84
2023/10/24 11:32:29;;;;;;;10.52;7.75;;;;;;;;;;6277379;22;20012;-85
2023/10/24 11:34:55;;;;;;;10.77;8.68;;;;;;;;;;6250377;22;20437;-85
2023/10/24 11:37:20;;;;;;;11.02;8.68;;;;;;;;;;6250424;22;20042;-85
2023/10/24 11:39:46;;;;;;;10.15;8.15;;;;;;;;;;6277803;22;20000;-85
2023/10/24 11:42:11;;;;;;;12.95;10.43;;;;;;;;;;6277481;22;20068;-85
2023/10/24 11:44:36;;;;;;;10.43;8.32;;;;;;;;;;6250891;22;20003;-86
2023/10/24 15:52:55;;;;;;;6.13;4.47;;;;;;;;;;6207441;23;20008;-83
2023/10/24 15:55:21;;;;;;;5.97;4.47;;;;;;;;;;6246791;23;20428;-84
2023/10/24 15:57:51;;;;;;;5.80;4.18;;;;;;;;;;6219954;23;20079;-84
2023/10/24 16:00:19;;;;;;;4.80;4.13;;;;;;;;;;6246660;23;20323;-84
2023/10/24 16:02:44;;;;;;;4.82;4.15;;;;;;;;;;6246916;23;20004;-84
2023/10/24 16:05:10;;;;;;;4.43;4.03;;;;;;;;;;6247200;23;20407;-84
2023/10/24 16:07:35;;;;;;;4.93;3.70;;;;;;;;;;6246976;23;20443;-84
2023/10/24 16:10:01;;;;;;;3.20;2.72;;;;;;;;;;6219564;23;20012;-87
2023/10/24 16:12:26;;;;;;;4.22;2.92;;;;;;;;;;6219777;23;20101;-86
2023/10/24 16:14:52;;;;;;;4.13;2.70;;;;;;;;;;6219917;23;20007;-86
2023/10/24 16:17:17;;;;;;;3.33;3.03;;;;;;;;;;6246774;23;20004;-84
2023/10/24 16:19:43;;;;;;;3.85;3.03;;;;;;;;;;6246471;23;20431;-88
2023/10/24 16:22:09;;;;;;;3.97;3.58;;;;;;;;;;6246705;23;20003;-85
2023/10/24 16:24:34;;;;;;;3.53;3.20;;;;;;;;;;6245095;23;20004;-86
2023/10/24 16:27:00;;;;;;;3.28;2.97;;;;;;;;;;6219753;23;20327;-85
2023/10/24 16:29:26;;;;;;;3.28;2.92;;;;;;;;;;6246363;23;20079;-86
2023/10/24 16:31:52;;;;;;;3.08;2.88;;;;;;;;;;6219692;23;20089;-85
2023/10/24 16:34:18;;;;;;;3.33;3.00;;;;;;;;;;6246506;23;20074;-87
2023/10/24 16:36:43;;;;;;;3.15;2.90;;;;;;;;;;6246426;23;20420;-86
2023/10/24 16:39:09;;;;;;;4.97;3.25;;;;;;;;;;6246587;23;20062;-86
2023/10/24 16:41:34;;;;;;;3.28;2.97;;;;;;;;;;6219491;23;20008;-86
2023/10/24 16:44:00;;;;;;;3.38;3.08;;;;;;;;;;6246628;23;20004;-91
2023/10/24 17:46:46;;;;;;;5.20;3.85;;;;;;;;;;6195443;23;20021;-89
2023/10/24 17:49:25;;;;;;;3.45;2.97;;;;;;;;;;6229302;23;20013;-91
2023/10/24 17:51:55;;;;;;;8.87;3.60;;;;;;;;;;6197243;23;20001;-89
2023/10/24 17:54:22;;;;;;;3.90;3.40;;;;;;;;;;6218476;23;20339;-92
2023/10/24 17:56:47;;;;;;;3.40;3.10;;;;;;;;;;6191333;23;20013;-95
2023/10/24 17:59:13;;;;;;;3.30;2.92;;;;;;;;;;6191658;23;20008;-94
2023/10/24 18:01:38;;;;;;;4.22;3.42;;;;;;;;;;6189458;23;20029;-93
2023/10/24 18:04:04;;;;;;;5.32;3.88;;;;;;;;;;6190399;23;20015;-96
2023/10/24 18:06:29;;;;;;;4.43;3.85;;;;;;;;;;6215143;23;20001;-90
2023/10/24 18:08:55;;;;;;;4.00;3.70;;;;;;;;;;6190914;23;20301;-93
2023/10/24 18:11:21;;;;;;;4.00;3.47;;;;;;;;;;6189505;23;20443;-94
2023/10/24 18:13:46;;;;;;;4.70;3.60;;;;;;;;;;6191820;23;20005;-93
2023/10/24 18:16:12;;;;;;;6.22;3.83;;;;;;;;;;6190268;23;20009;-95
2023/10/24 18:18:37;;;;;;;5.15;3.88;;;;;;;;;;6189982;23;20001;-93
2023/10/24 18:21:14;;;;;;;5.07;4.57;;;;;;;;;;6189884;23;20010;-93
2023/10/24 18:23:40;;;;;;;4.97;4.47;;;;;;;;;;6191234;23;20005;-94
2023/10/24 18:26:06;;;;;;;5.78;3.80;;;;;;;;;;6192653;23;20008;-89
2023/10/24 18:28:31;;;;;;;7.03;4.53;;;;;;;;;;6198640;23;20008;-91
2023/10/24 18:30:57;;;;;;;7.32;5.22;;;;;;;;;;6199393;23;20009;-91
2023/10/24 18:33:23;;;;;;;8.95;6.25;;;;;;;;;;6201325;23;20072;-93
2023/10/24 18:35:49;;;;;;;8.65;5.40;;;;;;;;;;6200130;23;20001;-89
2023/10/24 18:38:14;;;;;;;5.25;4.40;;;;;;;;;;6196612;23;20016;-94
2023/10/24 18:40:50;;;;;;;5.43;4.93;;;;;;;;;;6196197;23;20005;-93
2023/10/24 18:43:15;;;;;;;6.07;5.47;;;;;;;;;;6190196;23;20011;-92
2023/10/24 18:45:41;;;;;;;5.90;5.00;;;;;;;;;;6189419;23;20001;-90
2023/10/24 18:48:07;;;;;;;5.65;5.05;;;;;;;;;;6187037;23;20013;-92
2023/10/24 18:50:33;;;;;;;5.75;5.05;;;;;;;;;;6188254;23;20013;-93
2023/10/24 18:53:00;;;;;;;5.07;4.57;;;;;;;;;;6188439;23;20012;-92
2023/10/24 18:55:25;;;;;;;6.07;4.90;;;;;;;;;;6188192;23;20025;-93
2023/10/24 18:57:51;;;;;;;4.60;4.20;;;;;;;;;;6194926;23;20024;-96
2023/10/24 19:00:17;;;;;;;5.38;4.45;;;;;;;;;;6188657;23;20020;-94
2023/10/24 19:02:43;;;;;;;6.28;4.88;;;;;;;;;;6188712;23;20004;-91
2023/10/24 19:05:08;;;;;;;8.27;4.70;;;;;;;;;;6187763;23;20302;-92
2023/10/24 19:07:34;;;;;;;5.35;4.85;;;;;;;;;;6187767;23;20105;-92
2023/10/24 19:09:59;;;;;;;4.28;3.72;;;;;;;;;;6188151;23;20001;-89
2023/10/24 19:12:25;;;;;;;8.00;3.83;;;;;;;;;;6186645;23;20075;-91
2023/10/24 19:14:51;;;;;;;6.13;4.20;;;;;;;;;;6188340;23;20052;-93
2023/10/24 19:17:17;;;;;;;5.97;4.90;;;;;;;;;;6186954;23;20009;-90
2023/10/24 19:19:43;;;;;;;6.93;5.75;;;;;;;;;;6188543;23;20063;-92
2023/10/24 19:22:08;;;;;;;7.93;5.65;;;;;;;;;;6187853;23;20496;-91
2023/10/24 19:24:34;;;;;;;7.78;5.03;;;;;;;;;;6187610;23;20007;-92
2023/10/24 19:27:00;;;;;;;5.38;4.75;;;;;;;;;;6161682;23;20032;-89
2023/10/24 19:29:25;;;;;;;4.85;4.43;;;;;;;;;;6186177;23;20009;-91
2023/10/24 19:31:51;;;;;;;5.97;4.32;;;;;;;;;;6187642;23;20032;-93
2023/10/24 19:34:17;;;;;;;6.22;5.22;;;;;;;;;;6187351;23;20032;-92
2023/10/24 19:36:48;;;;;;;6.43;5.82;;;;;;;;;;6187739;23;20034;-91
2023/10/24 19:39:14;;;;;;;5.35;4.70;;;;;;;;;;6187426;23;20005;-91
2023/10/24 19:41:40;;;;;;;5.15;4.65;;;;;;;;;;6187505;23;20023;-91
2023/10/24 19:44:05;;;;;;;5.22;4.70;;;;;;;;;;6186916;23;20028;-91
2023/10/24 19:46:42;;;;;;;7.60;5.88;;;;;;;;;;6185298;23;20063;-89
2023/10/24 19:49:10;;;;;;;5.63;5.05;;;;;;;;;;6186686;23;20012;-91
2023/10/24 19:51:36;;;;;;;7.07;5.20;;;;;;;;;;6185482;23;20069;-88
2023/10/24 19:54:03;;;;;;;7.13;4.88;;;;;;;;;;6186815;23;20036;-89
2023/10/24 19:56:31;;;;;;;5.70;4.93;;;;;;;;;;6160314;23;20124;-90
2023/10/24 19:58:57;;;;;;;6.63;5.38;;;;;;;;;;6186881;23;20006;-88
2023/10/24 20:01:24;;;;;;;7.57;5.32;;;;;;;;;;6186770;23;20112;-88
2023/10/24 20:03:50;;;;;;;6.38;5.10;;;;;;;;;;6186800;23;20088;-89
2023/10/24 20:06:16;;;;;;;7.70;6.00;;;;;;;;;;6160418;23;20399;-89
2023/10/24 20:08:44;;;;;;;9.32;6.65;;;;;;;;;;6187167;23;20001;-91
2023/10/24 20:11:10;;;;;;;8.63;7.07;;;;;;;;;;6160066;23;20070;-88
2023/10/24 20:13:36;;;;;;;7.47;6.15;;;;;;;;;;6188021;23;20020;-90
2023/10/24 20:16:04;;;;;;;6.97;5.80;;;;;;;;;;6186749;23;19998;-89
2023/10/24 20:18:29;;;;;;;8.05;6.35;;;;;;;;;;6187483;23;20475;-92
2023/10/24 20:20:55;;;;;;;7.65;6.10;;;;;;;;;;6186393;23;20001;-88
2023/10/24 20:23:21;;;;;;;8.45;6.88;;;;;;;;;;6186394;23;20329;-88
2023/10/24 20:25:50;;;;;;;11.73;7.90;;;;;;;;;;6186605;23;20009;-87
2023/10/24 20:28:16;;;;;;;17.27;11.88;;;;;;;;;;6160383;23;20008;-87
2023/10/24 20:30:42;;;;;;;15.65;11.57;;;;;;;;;;6186666;23;20005;-87
2023/10/24 20:33:07;;;;;;;15.23;10.73;;;;;;;;;;6187539;23;20076;-88
2023/10/24 20:35:33;;;;;;;12.02;9.85;;;;;;;;;;6186523;23;20298;-87
2023/10/24 20:37:58;;;;;;;12.38;8.52;;;;;;;;;;6186015;23;20024;-92
2023/10/24 20:40:24;;;;;;;16.00;9.95;;;;;;;;;;6186683;23;20059;-89
2023/10/24 20:42:50;;;;;;;13.32;9.82;;;;;;;;;;6186533;23;20088;-90
2023/10/24 20:45:16;;;;;;;16.13;10.07;;;;;;;;;;6187062;23;20074;-91
2023/10/24 20:47:42;;;;;;;14.70;10.60;;;;;;;;;;6186247;23;20514;-88
2023/10/24 20:50:08;;;;;;;14.63;9.77;;;;;;;;;;6186221;23;20005;-89
2023/10/24 20:52:34;;;;;;;13.10;8.43;;;;;;;;;;6160260;23;20009;-88
2023/10/24 20:55:02;;;;;;;10.98;8.27;;;;;;;;;;6186346;23;20001;-89
2023/10/24 20:57:28;;;;;;;10.75;8.80;;;;;;;;;;6186615;23;20005;-89
2023/10/24 20:59:54;;;;;;;13.10;8.93;;;;;;;;;;6186911;23;20128;-88
2023/10/24 21:02:19;;;;;;;11.13;7.80;;;;;;;;;;6186578;23;20439;-90
2023/10/24 21:04:45;;;;;;;11.20;8.90;;;;;;;;;;6186973;23;20009;-89
2023/10/24 21:07:13;;;;;;;13.90;10.07;;;;;;;;;;6186555;23;20417;-89
2023/10/24 21:09:39;;;;;;;16.42;10.13;;;;;;;;;;6159782;23;20009;-88
2023/10/24 21:12:05;;;;;;;15.98;10.65;;;;;;;;;;6186540;23;20008;-91
2023/10/24 21:14:31;;;;;;;16.48;10.30;;;;;;;;;;6186118;23;19993;-89
2023/10/24 21:16:56;;;;;;;15.18;10.85;;;;;;;;;;6186821;23;20124;-91
2023/10/24 21:19:22;;;;;;;15.93;10.38;;;;;;;;;;6185276;23;19997;-88
2023/10/24 21:21:47;;;;;;;15.98;9.90;;;;;;;;;;6160640;23;20064;-89
2023/10/24 21:24:13;;;;;;;14.43;9.65;;;;;;;;;;6187665;23;20025;-90
2023/10/24 21:26:39;;;;;;;18.05;11.40;;;;;;;;;;6160332;23;20001;-90
2023/10/24 21:29:05;;;;;;;18.98;11.70;;;;;;;;;;6186369;23;20001;-90
2023/10/24 21:31:32;;;;;;;18.83;12.10;;;;;;;;;;6161097;23;20124;-90
2023/10/24 21:33:58;;;;;;;19.73;12.73;;;;;;;;;;6160152;23;20017;-89
2023/10/24 21:36:24;;;;;;;18.35;13.13;;;;;;;;;;6186808;23;20005;-89
2023/10/24 21:38:49;;;;;;;21.10;12.55;;;;;;;;;;6186206;23;20013;-89
2023/10/24 21:41:14;;;;;;;22.23;12.32;;;;;;;;;;6159608;23;20009;-90
2023/10/24 21:43:40;;;;;;;19.30;12.43;;;;;;;;;;6186020;23;20005;-87
2023/10/24 21:46:10;;;;;;;18.23;11.30;;;;;;;;;;6186072;23;20015;-86
2023/10/24 21:48:35;;;;;;;19.27;11.65;;;;;;;;;;6185726;23;20024;-86
2023/10/24 21:51:02;;;;;;;26.15;12.45;;;;;;;;;;6186138;23;20040;-89
2023/10/24 21:53:29;;;;;;;28.10;14.13;;;;;;;;;;6186327;23;20003;-89
2023/10/24 21:55:56;;;;;;;23.17;14.10;;;;;;;;;;6186099;23;20076;-90
2023/10/24 21:58:22;;;;;;;26.75;14.15;;;;;;;;;;6186199;23;20436;-90
2023/10/24 22:00:47;;;;;;;26.23;14.95;;;;;;;;;;6186457;23;20013;-89
2023/10/24 22:03:13;;;;;;;23.98;15.55;;;;;;;;;;6160144;23;20001;-89
2023/10/24 22:05:38;;;;;;;24.23;13.77;;;;;;;;;;6186093;23;20008;-88
2023/10/24 22:08:04;;;;;;;28.80;15.07;;;;;;;;;;6159559;23;20001;-86
2023/10/24 22:10:30;;;;;;;32.90;15.88;;;;;;;;;;6184352;23;20013;-88
2023/10/24 22:12:55;;;;;;;35.30;18.25;;;;;;;;;;6187944;23;20068;-90
2023/10/24 22:15:21;;;;;;;32.60;17.70;;;;;;;;;;6188006;23;20029;-87
2023/10/24 22:17:48;;;;;;;38.25;19.50;;;;;;;;;;6161564;23;20013;-89
2023/10/24 22:20:13;;;;;;;44.58;19.25;;;;;;;;;;6161434;23;20063;-87
2023/10/24 22:22:39;;;;;;;46.10;21.50;;;;;;;;;;6160809;23;20005;-88
2023/10/24 22:25:05;;;;;;;48.58;21.17;;;;;;;;;;6187802;23;20005;-89
2023/10/24 22:27:30;;;;;;;47.35;20.83;;;;;;;;;;6161713;23;20009;-89
2023/10/24 22:29:56;;;;;;;40.70;19.42;;;;;;;;;;6188909;23;20357;-86
2023/10/24 22:32:21;;;;;;;37.33;19.08;;;;;;;;;;6187721;23;20500;-85
2023/10/24 22:34:47;;;;;;;40.25;19.48;;;;;;;;;;6187490;23;20413;-86
2023/10/24 22:37:12;;;;;;;44.47;20.27;;;;;;;;;;6187630;23;20001;-89
2023/10/24 22:39:38;;;;;;;41.58;18.15;;;;;;;;;;6187592;23;20008;-89
